Time;durP1;ratioP1;P1;durP2;ratioP2;P2;SDS_P1;SDS_P2;PMS_P1;PMS_P2;Temp;Humidity;BMP_temperature;BMP_pressure;BME280_temperature;BME280_humidity;BME280_pressure;Samples;Min_cycle;Max_cycle;Signal;HPM_P1;HPM_P2
2021/09/16 00:00:14;;;;;;;17.10;9.05;;;10.80;66.20;;;;;;4997109;28;20539;-81
2021/09/16 00:02:41;;;;;;;15.65;8.93;;;10.90;66.30;;;;;;4997388;28;20034;-82
2021/09/16 00:05:09;;;;;;;16.45;8.55;;;10.80;66.10;;;;;;4995432;28;20069;-82
2021/09/16 00:07:35;;;;;;;16.20;8.30;;;10.80;65.80;;;;;;4977735;28;20046;-81
2021/09/16 00:10:01;;;;;;;15.75;8.18;;;10.70;65.80;;;;;;4995675;28;20045;-81
2021/09/16 00:12:27;;;;;;;16.00;8.15;;;10.70;66.00;;;;;;4979354;28;20085;-81
2021/09/16 00:14:52;;;;;;;19.10;9.95;;;10.70;66.00;;;;;;4979358;28;20042;-81
2021/09/16 00:17:18;;;;;;;22.67;11.38;;;10.70;66.90;;;;;;4996312;28;20089;-83
2021/09/16 00:19:46;;;;;;;19.45;10.75;;;10.70;67.50;;;;;;4995254;28;20172;-82
2021/09/16 00:22:12;;;;;;;23.08;11.48;;;10.70;67.80;;;;;;4996819;28;20039;-81
2021/09/16 00:24:38;;;;;;;17.85;10.15;;;10.70;67.70;;;;;;4995475;28;20050;-81
2021/09/16 00:27:04;;;;;;;14.63;8.27;;;10.70;68.00;;;;;;4979258;28;20411;-81
2021/09/16 00:29:31;;;;;;;16.90;8.20;;;10.60;66.80;;;;;;4996418;28;20046;-80
2021/09/16 00:31:57;;;;;;;15.32;8.55;;;10.60;67.10;;;;;;4996540;28;20034;-80
2021/09/16 00:34:22;;;;;;;16.90;8.65;;;10.60;67.20;;;;;;4996508;28;20037;-80
2021/09/16 00:36:48;;;;;;;15.77;9.23;;;10.50;67.30;;;;;;4978666;28;20544;-80
2021/09/16 00:39:14;;;;;;;18.45;9.50;;;10.50;67.70;;;;;;4978648;28;20125;-80
2021/09/16 00:41:40;;;;;;;17.80;9.60;;;10.50;68.00;;;;;;4978528;28;20082;-80
2021/09/16 00:44:06;;;;;;;15.40;8.38;;;10.50;67.70;;;;;;4995123;28;20397;-80
2021/09/16 00:46:31;;;;;;;15.35;8.43;;;10.40;67.90;;;;;;4995993;28;20034;-80
2021/09/16 00:48:57;;;;;;;16.20;8.77;;;10.40;68.10;;;;;;4978369;28;20046;-80
2021/09/16 00:51:23;;;;;;;17.45;9.80;;;10.30;68.00;;;;;;4996148;28;20461;-80
2021/09/16 00:53:51;;;;;;;15.32;9.15;;;10.30;68.90;;;;;;4995522;28;20140;-81
2021/09/16 00:56:18;;;;;;;17.27;9.38;;;10.30;68.90;;;;;;4996136;28;20077;-81
2021/09/16 00:58:49;;;;;;;17.45;9.52;;;10.30;68.80;;;;;;4995834;28;20070;-81
2021/09/16 01:01:16;;;;;;;15.70;8.38;;;10.30;68.70;;;;;;4995961;28;20043;-80
2021/09/16 01:03:43;;;;;;;15.73;8.15;;;10.30;68.40;;;;;;4978507;28;20077;-81
2021/09/16 01:06:09;;;;;;;13.38;7.68;;;10.30;68.70;;;;;;4978775;28;20476;-81
2021/09/16 01:08:35;;;;;;;18.45;8.98;;;10.30;68.30;;;;;;4962185;28;20046;-81
2021/09/16 01:11:02;;;;;;;13.45;8.10;;;10.30;68.90;;;;;;4994600;28;20038;-81
2021/09/16 01:13:28;;;;;;;14.25;7.65;;;10.30;68.80;;;;;;4978720;28;20409;-80
2021/09/16 01:15:58;;;;;;;17.38;8.70;;;10.30;68.60;;;;;;4978259;28;20049;-81
2021/09/16 01:18:24;;;;;;;14.95;9.18;;;10.30;69.60;;;;;;4977884;28;20404;-80
2021/09/16 01:20:50;;;;;;;18.25;9.23;;;10.20;69.90;;;;;;4995447;28;20054;-81
2021/09/16 01:23:15;;;;;;;17.58;9.65;;;10.20;70.00;;;;;;4977877;28;20042;-81
2021/09/16 01:25:41;;;;;;;13.02;7.57;;;10.20;70.20;;;;;;4995128;28;20034;-81
2021/09/16 01:28:07;;;;;;;14.77;7.28;;;10.20;69.30;;;;;;4994559;28;20035;-81
2021/09/16 01:30:33;;;;;;;12.75;6.93;;;10.20;69.20;;;;;;4994999;28;20425;-81
2021/09/16 01:32:59;;;;;;;12.25;6.55;;;10.20;68.90;;;;;;4995247;28;20030;-81
2021/09/16 01:35:26;;;;;;;13.35;6.93;;;10.20;68.80;;;;;;4977877;28;20169;-80
2021/09/16 01:37:53;;;;;;;12.77;6.70;;;10.20;68.60;;;;;;4995060;28;20503;-80
2021/09/16 01:40:18;;;;;;;13.40;7.28;;;10.20;68.70;;;;;;4995106;28;20048;-80
2021/09/16 01:42:46;;;;;;;10.88;6.60;;;10.20;68.90;;;;;;4965165;28;20050;-80
2021/09/16 01:45:20;;;;;;;14.88;7.13;;;10.30;68.70;;;;;;4958128;28;20093;-82
2021/09/16 01:47:47;;;;;;;12.60;7.20;;;10.30;69.20;;;;;;4975902;28;20061;-81
2021/09/16 01:50:15;;;;;;;14.88;8.02;;;10.30;68.70;;;;;;4974434;28;20038;-81
2021/09/16 01:52:41;;;;;;;14.30;7.88;;;10.20;69.50;;;;;;4957982;28;20131;-81
2021/09/16 01:55:08;;;;;;;16.75;8.43;;;10.20;69.40;;;;;;4975577;28;20027;-81
2021/09/16 01:57:34;;;;;;;16.42;8.80;;;10.10;69.60;;;;;;4958095;28;20039;-81
2021/09/16 02:00:00;;;;;;;18.48;8.93;;;10.10;70.10;;;;;;4975326;28;20393;-81
2021/09/16 02:02:25;;;;;;;16.38;8.75;;;10.10;70.10;;;;;;4975477;28;20085;-81
2021/09/16 02:04:51;;;;;;;18.95;8.98;;;10.00;69.80;;;;;;4957416;28;20035;-81
2021/09/16 02:07:17;;;;;;;12.48;7.95;;;10.00;70.10;;;;;;4974131;28;20049;-81
2021/09/16 02:09:43;;;;;;;13.45;8.05;;;10.00;69.70;;;;;;4975521;28;20042;-80
2021/09/16 02:12:10;;;;;;;12.82;7.28;;;9.90;70.20;;;;;;4941922;28;20367;-81
2021/09/16 02:14:36;;;;;;;16.35;8.57;;;9.80;70.20;;;;;;4957461;28;20035;-81
2021/09/16 02:17:02;;;;;;;13.77;7.78;;;9.70;71.00;;;;;;4942207;28;20481;-82
2021/09/16 02:19:28;;;;;;;16.30;9.07;;;9.70;71.50;;;;;;4958031;28;20082;-81
2021/09/16 02:21:54;;;;;;;15.20;8.32;;;9.70;71.90;;;;;;4974055;28;20051;-81
2021/09/16 02:24:20;;;;;;;14.00;8.07;;;9.70;71.90;;;;;;4982213;28;20038;-80
2021/09/16 02:26:46;;;;;;;17.83;8.07;;;9.60;71.60;;;;;;4995868;28;20031;-80
2021/09/16 02:29:11;;;;;;;13.30;7.95;;;9.70;71.80;;;;;;4996929;28;20021;-80
2021/09/16 02:31:38;;;;;;;10.18;6.00;;;9.60;71.30;;;;;;4996076;28;20023;-80
2021/09/16 02:34:05;;;;;;;12.82;6.63;;;9.60;70.80;;;;;;4978548;28;20034;-79
2021/09/16 02:36:31;;;;;;;13.57;7.32;;;9.70;70.80;;;;;;4975410;28;20074;-81
2021/09/16 02:38:57;;;;;;;15.35;8.43;;;9.60;71.30;;;;;;4979296;28;20038;-82
2021/09/16 02:41:23;;;;;;;13.48;7.47;;;9.60;72.00;;;;;;4997120;28;20098;-81
2021/09/16 02:43:49;;;;;;;12.90;7.28;;;9.50;72.00;;;;;;5013076;28;20030;-80
2021/09/16 02:46:14;;;;;;;13.73;6.60;;;9.50;72.00;;;;;;4999035;28;20094;-80
2021/09/16 02:48:40;;;;;;;13.10;6.82;;;9.50;71.80;;;;;;4998244;28;20015;-79
2021/09/16 02:51:07;;;;;;;14.15;6.90;;;9.50;72.10;;;;;;5013693;28;20090;-80
2021/09/16 02:53:33;;;;;;;15.98;8.20;;;9.50;72.20;;;;;;5003285;28;20093;-81
2021/09/16 02:55:59;;;;;;;14.98;7.40;;;9.50;72.80;;;;;;4994872;28;20038;-81
2021/09/16 02:58:25;;;;;;;12.85;7.07;;;9.60;72.50;;;;;;4994594;28;20046;-81
2021/09/16 03:00:51;;;;;;;14.85;8.23;;;9.60;72.40;;;;;;4976920;28;20074;-81
2021/09/16 03:03:17;;;;;;;13.77;7.72;;;9.60;72.80;;;;;;4994333;28;20078;-81
2021/09/16 03:05:42;;;;;;;14.57;7.90;;;9.50;73.00;;;;;;4977212;28;20042;-81
2021/09/16 03:08:08;;;;;;;14.77;7.90;;;9.50;73.20;;;;;;4992884;28;20088;-81
2021/09/16 03:10:35;;;;;;;13.85;7.63;;;9.50;73.70;;;;;;4976867;28;20070;-82
2021/09/16 03:13:01;;;;;;;11.90;6.32;;;9.50;73.20;;;;;;4977390;28;20050;-81
2021/09/16 03:15:26;;;;;;;11.23;6.20;;;9.50;73.50;;;;;;4993727;28;20034;-82
2021/09/16 03:17:52;;;;;;;10.68;6.03;;;9.50;73.40;;;;;;4976406;28;20393;-81
2021/09/16 03:20:18;;;;;;;9.95;5.40;;;9.50;73.50;;;;;;4976674;28;20114;-80
2021/09/16 03:22:43;;;;;;;11.88;5.72;;;9.50;72.90;;;;;;4993742;28;20066;-80
2021/09/16 03:25:10;;;;;;;12.23;6.45;;;9.60;73.20;;;;;;4994469;28;20042;-81
2021/09/16 03:27:36;;;;;;;9.38;5.82;;;9.60;73.10;;;;;;4992738;28;20195;-80
2021/09/16 03:30:05;;;;;;;11.48;6.57;;;9.70;73.10;;;;;;4992690;28;20035;-81
2021/09/16 03:32:31;;;;;;;11.57;6.43;;;9.80;73.00;;;;;;4976977;28;20042;-82
2021/09/16 03:34:57;;;;;;;13.18;7.25;;;9.80;73.30;;;;;;4993549;28;20511;-84
2021/09/16 03:37:22;;;;;;;12.02;7.10;;;9.90;72.90;;;;;;4993806;28;20034;-81
2021/09/16 03:39:48;;;;;;;12.07;6.72;;;10.00;72.80;;;;;;4976775;28;20034;-82
2021/09/16 03:42:15;;;;;;;14.13;7.10;;;10.00;72.70;;;;;;4994179;28;20054;-83
2021/09/16 03:44:41;;;;;;;12.98;7.10;;;10.10;72.70;;;;;;4993876;28;20053;-83
2021/09/16 03:47:07;;;;;;;12.52;7.20;;;10.10;72.70;;;;;;4976444;28;20035;-83
2021/09/16 03:49:38;;;;;;;16.45;7.70;;;10.20;72.60;;;;;;4986079;28;20074;-83
2021/09/16 03:52:04;;;;;;;12.52;6.95;;;10.20;72.30;;;;;;4985907;28;20045;-81
2021/09/16 03:54:30;;;;;;;15.35;8.13;;;10.30;72.10;;;;;;4987055;28;20025;-82
2021/09/16 03:56:56;;;;;;;15.63;8.38;;;10.30;72.50;;;;;;4962129;28;20083;-81
2021/09/16 03:59:22;;;;;;;17.35;9.98;;;10.40;72.50;;;;;;4978620;28;20034;-83
2021/09/16 04:01:49;;;;;;;22.02;12.23;;;10.50;73.10;;;;;;4977758;28;20367;-88
2021/09/16 04:04:15;;;;;;;20.80;11.35;;;10.50;72.70;;;;;;4944495;28;20043;-84
2021/09/16 04:06:40;;;;;;;18.60;10.48;;;10.60;73.10;;;;;;4977496;28;20035;-87
2021/09/16 04:09:06;;;;;;;19.60;9.90;;;10.70;73.10;;;;;;4959874;28;20445;-81
2021/09/16 04:11:34;;;;;;;17.05;9.23;;;10.80;72.90;;;;;;4977254;28;20035;-80
2021/09/16 04:13:59;;;;;;;16.83;9.57;;;10.90;72.40;;;;;;4995502;28;20047;-80
2021/09/16 04:16:25;;;;;;;17.95;9.48;;;10.90;72.60;;;;;;4996842;28;20034;-80
2021/09/16 04:18:52;;;;;;;17.17;9.80;;;11.00;72.40;;;;;;4996618;28;20121;-80
2021/09/16 04:21:18;;;;;;;15.77;8.25;;;11.10;71.80;;;;;;4996363;28;20461;-80
2021/09/16 04:23:45;;;;;;;15.55;8.48;;;11.20;71.50;;;;;;4995077;28;20041;-81
2021/09/16 04:26:11;;;;;;;13.02;7.63;;;11.20;71.50;;;;;;4995583;28;20439;-79
2021/09/16 04:28:37;;;;;;;15.05;8.50;;;11.20;71.50;;;;;;4996712;28;20096;-79
2021/09/16 04:31:02;;;;;;;14.25;7.88;;;11.30;71.40;;;;;;4978640;28;20428;-80
2021/09/16 04:33:28;;;;;;;13.60;7.75;;;11.30;71.30;;;;;;4977897;28;20089;-80
2021/09/16 04:35:54;;;;;;;16.20;8.60;;;11.30;71.20;;;;;;4975192;28;20142;-80
2021/09/16 04:38:20;;;;;;;15.93;8.20;;;11.30;71.50;;;;;;4994216;28;20026;-82
2021/09/16 04:40:46;;;;;;;15.32;7.72;;;11.40;71.10;;;;;;4977541;28;20062;-80
2021/09/16 04:43:11;;;;;;;12.60;7.10;;;11.40;70.90;;;;;;4994515;28;20053;-80
2021/09/16 04:45:37;;;;;;;11.80;6.72;;;11.50;70.50;;;;;;4994130;28;20037;-81
2021/09/16 04:48:03;;;;;;;12.32;7.20;;;11.50;70.60;;;;;;4995575;28;20038;-80
2021/09/16 04:50:29;;;;;;;15.80;7.93;;;11.50;70.60;;;;;;4993095;28;20125;-80
2021/09/16 04:52:54;;;;;;;17.63;9.10;;;11.60;70.80;;;;;;4993275;28;20101;-81
2021/09/16 04:55:20;;;;;;;19.98;9.52;;;11.60;71.00;;;;;;4992058;28;20041;-82
2021/09/16 04:57:46;;;;;;;14.85;9.00;;;11.70;71.10;;;;;;4995854;28;20065;-87
2021/09/16 05:00:12;;;;;;;14.20;8.07;;;11.80;70.90;;;;;;4995295;28;20073;-92
2021/09/16 05:02:38;;;;;;;15.65;8.77;;;11.90;70.50;;;;;;4974632;28;20117;-86
2021/09/16 05:05:05;;;;;;;19.23;11.05;;;11.90;71.50;;;;;;4975934;28;20069;-84
2021/09/16 05:07:31;;;;;;;19.48;10.50;;;12.00;72.50;;;;;;4994809;28;20169;-85
2021/09/16 05:09:57;;;;;;;18.48;10.13;;;12.20;73.30;;;;;;4978757;28;20434;-84
2021/09/16 05:12:22;;;;;;;20.40;9.32;;;12.40;71.80;;;;;;4980471;28;20042;-81
2021/09/16 05:14:48;;;;;;;16.00;8.98;;;12.50;71.70;;;;;;4996251;28;20092;-83
2021/09/16 05:17:14;;;;;;;13.45;7.70;;;12.50;71.10;;;;;;4977948;28;20069;-84
2021/09/16 05:19:39;;;;;;;17.67;8.10;;;12.50;70.50;;;;;;4978314;28;20034;-87
2021/09/16 05:22:05;;;;;;;15.50;8.43;;;12.50;70.20;;;;;;4995392;28;20047;-83
2021/09/16 05:24:31;;;;;;;13.70;7.90;;;12.40;70.80;;;;;;4995655;28;20084;-83
2021/09/16 05:26:57;;;;;;;16.95;7.88;;;12.40;70.70;;;;;;4994153;28;20042;-82
2021/09/16 05:29:23;;;;;;;11.90;6.80;;;12.40;70.40;;;;;;4978313;28;20046;-82
2021/09/16 05:31:49;;;;;;;68.75;48.78;;;12.40;70.40;;;;;;4978144;28;20429;-84
2021/09/16 05:34:14;;;;;;;89.38;64.00;;;12.40;70.50;;;;;;4995681;28;20369;-81
2021/09/16 05:36:40;;;;;;;55.50;37.15;;;12.50;70.70;;;;;;4977428;28;20042;-81
2021/09/16 05:39:06;;;;;;;36.17;24.92;;;12.60;70.40;;;;;;4977124;28;20133;-83
2021/09/16 05:41:32;;;;;;;149.70;99.80;;;12.70;70.30;;;;;;4994691;28;20046;-82
2021/09/16 05:43:58;;;;;;;95.93;62.90;;;12.80;70.00;;;;;;4977918;28;20454;-83
2021/09/16 05:46:23;;;;;;;85.40;56.30;;;12.90;70.00;;;;;;4977703;28;20030;-85
2021/09/16 05:48:49;;;;;;;67.85;43.50;;;13.00;70.00;;;;;;4994709;28;20038;-84
2021/09/16 05:51:15;;;;;;;48.05;32.50;;;13.10;69.60;;;;;;4993113;28;20092;-83
2021/09/16 05:53:43;;;;;;;36.30;24.23;;;13.20;69.50;;;;;;4994282;28;20515;-86
2021/09/16 05:56:09;;;;;;;28.80;18.88;;;13.40;69.20;;;;;;4993958;28;20037;-83
2021/09/16 05:58:34;;;;;;;24.85;16.30;;;13.50;69.10;;;;;;4991660;28;20038;-83
2021/09/16 06:01:00;;;;;;;23.17;14.05;;;13.60;69.10;;;;;;4991473;28;20042;-85
2021/09/16 06:03:26;;;;;;;19.65;11.98;;;13.70;68.80;;;;;;4989893;28;20036;-83
2021/09/16 06:05:51;;;;;;;15.60;10.45;;;13.90;68.60;;;;;;4973825;28;20038;-83
2021/09/16 06:08:17;;;;;;;15.18;9.48;;;14.10;68.40;;;;;;4991774;28;20084;-84
2021/09/16 06:10:43;;;;;;;12.82;8.05;;;14.30;68.20;;;;;;4990394;28;20038;-82
2021/09/16 06:13:09;;;;;;;15.93;9.40;;;14.50;67.80;;;;;;4991744;28;20085;-83
2021/09/16 06:15:35;;;;;;;13.10;8.20;;;14.70;67.80;;;;;;4976193;28;20030;-82
2021/09/16 06:18:00;;;;;;;11.80;7.22;;;14.80;67.30;;;;;;4977533;28;20050;-82
2021/09/16 06:20:26;;;;;;;12.30;6.65;;;15.10;66.90;;;;;;4995019;28;20034;-83
2021/09/16 06:22:52;;;;;;;10.98;6.40;;;15.30;66.40;;;;;;4994763;28;20035;-83
2021/09/16 06:25:17;;;;;;;12.75;6.65;;;15.50;65.90;;;;;;4994991;28;20117;-82
2021/09/16 06:27:44;;;;;;;11.63;5.95;;;15.70;65.50;;;;;;4994662;28;20355;-82
2021/09/16 06:30:11;;;;;;;11.63;6.15;;;15.90;64.70;;;;;;4994594;28;20042;-82
2021/09/16 06:32:37;;;;;;;15.82;9.15;;;16.10;64.30;;;;;;4977359;28;20038;-82
2021/09/16 06:35:07;;;;;;;11.77;6.80;;;16.30;64.00;;;;;;4994529;28;20461;-83
2021/09/16 06:37:33;;;;;;;10.13;5.80;;;16.40;63.30;;;;;;4993790;28;20463;-82
2021/09/16 06:39:59;;;;;;;10.50;5.65;;;16.50;62.90;;;;;;4994454;28;20288;-82
2021/09/16 06:42:25;;;;;;;9.77;5.45;;;16.60;62.60;;;;;;4969752;28;20089;-83
2021/09/16 06:44:51;;;;;;;10.60;5.20;;;16.70;62.10;;;;;;4974919;28;20027;-83
2021/09/16 06:47:16;;;;;;;11.02;5.35;;;16.90;61.90;;;;;;4957362;28;20035;-84
2021/09/16 06:49:48;;;;;;;9.20;5.00;;;17.00;61.30;;;;;;4957032;28;20490;-82
2021/09/16 06:52:16;;;;;;;13.25;7.10;;;17.20;60.50;;;;;;4974885;28;20042;-83
2021/09/16 06:54:42;;;;;;;17.92;10.95;;;17.40;59.80;;;;;;4975251;28;20043;-83
2021/09/16 06:57:09;;;;;;;16.85;10.10;;;17.50;59.30;;;;;;4957327;28;20035;-83
2021/09/16 06:59:34;;;;;;;14.02;8.43;;;17.60;59.30;;;;;;4975478;28;20104;-83
2021/09/16 07:02:00;;;;;;;14.88;8.13;;;17.80;59.00;;;;;;4974801;28;20035;-83
2021/09/16 07:04:26;;;;;;;15.40;9.10;;;17.90;58.00;;;;;;4975037;28;20043;-83
2021/09/16 07:06:51;;;;;;;12.15;7.88;;;18.00;57.60;;;;;;4973787;28;20038;-83
2021/09/16 07:09:17;;;;;;;11.35;7.38;;;18.10;57.20;;;;;;4974471;28;20035;-83
2021/09/16 07:11:43;;;;;;;12.45;6.57;;;18.30;56.40;;;;;;4957988;28;20043;-82
2021/09/16 07:14:08;;;;;;;13.02;7.13;;;18.40;56.40;;;;;;4974913;28;20062;-83
2021/09/16 07:16:34;;;;;;;13.30;8.07;;;18.50;55.70;;;;;;4974732;28;20489;-82
2021/09/16 07:19:00;;;;;;;11.43;7.22;;;18.60;55.00;;;;;;4974652;28;20078;-84
2021/09/16 07:21:25;;;;;;;9.80;6.35;;;18.80;54.20;;;;;;4975147;28;20041;-83
2021/09/16 07:23:51;;;;;;;11.93;6.90;;;18.90;54.00;;;;;;4975270;28;20042;-83
2021/09/16 07:26:17;;;;;;;11.65;6.43;;;19.10;54.10;;;;;;4975622;28;20031;-84
2021/09/16 07:28:42;;;;;;;9.57;6.65;;;19.40;55.00;;;;;;4961095;28;20038;-84
2021/09/16 07:31:08;;;;;;;11.90;6.38;;;19.70;54.90;;;;;;4978054;28;20481;-84
2021/09/16 07:33:34;;;;;;;13.45;7.03;;;20.10;55.00;;;;;;4978279;28;20038;-84
2021/09/16 07:36:00;;;;;;;16.48;7.63;;;20.50;53.80;;;;;;4978292;28;20393;-84
2021/09/16 07:38:26;;;;;;;13.50;7.22;;;20.70;53.00;;;;;;4978229;28;20061;-83
2021/09/16 07:40:52;;;;;;;15.70;9.50;;;21.00;52.30;;;;;;4960683;28;20030;-84
2021/09/16 07:43:17;;;;;;;12.07;7.13;;;21.20;51.50;;;;;;4992093;28;20061;-83
2021/09/16 07:45:43;;;;;;;11.88;6.38;;;21.60;51.70;;;;;;4997501;28;20488;-84
2021/09/16 07:48:09;;;;;;;13.55;6.22;;;22.00;51.10;;;;;;4997432;28;20031;-84
2021/09/16 07:50:34;;;;;;;14.88;5.80;;;22.30;50.50;;;;;;4996385;28;20038;-84
2021/09/16 07:53:00;;;;;;;11.27;5.53;;;22.60;50.00;;;;;;4997592;28;20442;-82
2021/09/16 07:55:27;;;;;;;13.05;5.65;;;23.10;49.90;;;;;;4996165;28;20046;-82
2021/09/16 07:57:53;;;;;;;13.25;6.25;;;23.50;49.00;;;;;;4980282;28;20034;-83
2021/09/16 08:00:18;;;;;;;15.23;6.30;;;23.90;47.90;;;;;;4997053;28;20089;-84
2021/09/16 08:02:50;;;;;;;11.55;5.65;;;24.30;46.60;;;;;;4979748;28;20092;-83
2021/09/16 08:05:17;;;;;;;10.18;6.05;;;24.60;44.20;;;;;;5000410;28;20057;-83
2021/09/16 08:07:43;;;;;;;9.20;5.35;;;24.80;44.90;;;;;;4979856;28;20030;-83
2021/09/16 08:10:09;;;;;;;9.75;4.78;;;25.10;44.50;;;;;;4997317;28;20039;-83
2021/09/16 08:12:38;;;;;;;13.48;5.70;;;25.30;43.80;;;;;;4996252;28;20094;-83
2021/09/16 08:15:06;;;;;;;13.25;5.50;;;25.50;42.80;;;;;;4996567;28;20065;-83
2021/09/16 08:17:32;;;;;;;11.10;5.63;;;25.70;42.80;;;;;;4996906;28;20069;-83
2021/09/16 08:19:57;;;;;;;9.30;5.30;;;25.90;42.10;;;;;;4997528;28;20035;-82
2021/09/16 08:22:23;;;;;;;11.00;4.63;;;26.10;41.70;;;;;;4995213;28;20038;-82
2021/09/16 08:24:49;;;;;;;9.95;5.40;;;26.40;41.50;;;;;;5015735;28;20030;-85
2021/09/16 08:27:15;;;;;;;10.50;5.78;;;26.60;41.70;;;;;;5016063;28;20031;-82
2021/09/16 08:29:40;;;;;;;10.00;5.60;;;27.00;40.40;;;;;;5020088;28;20015;-82
2021/09/16 08:32:07;;;;;;;7.90;5.18;;;27.20;40.00;;;;;;5020804;28;20034;-84
2021/09/16 08:34:35;;;;;;;9.45;5.93;;;27.40;39.60;;;;;;4999727;28;20038;-82
2021/09/16 08:37:00;;;;;;;13.80;6.18;;;27.60;39.20;;;;;;5001769;28;20022;-83
2021/09/16 08:39:26;;;;;;;9.13;5.00;;;27.70;38.60;;;;;;5018266;28;20041;-83
2021/09/16 08:41:52;;;;;;;9.57;5.63;;;27.80;38.30;;;;;;5001152;28;20400;-83
2021/09/16 08:44:18;;;;;;;9.05;4.85;;;27.80;38.20;;;;;;5003317;28;20113;-84
2021/09/16 08:46:44;;;;;;;6.05;4.40;;;28.00;38.30;;;;;;4996006;28;20074;-83
2021/09/16 08:49:10;;;;;;;8.25;4.63;;;28.10;38.10;;;;;;4998429;28;20030;-84
2021/09/16 08:51:39;;;;;;;7.72;4.53;;;28.20;38.20;;;;;;4979847;28;20481;-84
2021/09/16 08:54:06;;;;;;;6.67;3.90;;;28.40;37.90;;;;;;4996890;28;20063;-84
2021/09/16 08:56:33;;;;;;;9.45;4.57;;;28.40;37.70;;;;;;4996442;28;20041;-84
2021/09/16 08:59:03;;;;;;;10.07;4.90;;;28.50;37.50;;;;;;4979286;28;20038;-84
2021/09/16 09:01:29;;;;;;;7.82;4.90;;;28.90;37.40;;;;;;4995927;28;20042;-84
2021/09/16 09:03:55;;;;;;;7.93;4.18;;;29.10;37.30;;;;;;4995619;28;20125;-85
2021/09/16 09:06:28;;;;;;;6.65;3.70;;;29.50;36.80;;;;;;4996569;28;20053;-84
2021/09/16 09:09:20;;;;;;;4.47;3.10;;;29.70;35.30;;;;;;4978607;28;20030;-83
2021/09/16 09:12:02;;;;;;;5.63;2.90;;;29.90;32.10;;;;;;4993013;28;20080;-83
2021/09/16 09:14:32;;;;;;;4.78;3.10;;;29.90;33.30;;;;;;4995944;28;20034;-83
2021/09/16 09:16:59;;;;;;;4.60;2.92;;;30.00;35.10;;;;;;4996455;28;20034;-83
2021/09/16 09:19:28;;;;;;;7.18;3.42;;;30.10;35.00;;;;;;4978672;28;20060;-84
2021/09/16 09:21:55;;;;;;;3.38;2.58;;;30.30;35.20;;;;;;4995093;28;20120;-84
2021/09/16 09:24:38;;;;;;;7.03;4.43;;;30.40;34.30;;;;;;4995845;28;20026;-83
2021/09/16 09:27:23;;;;;;;4.68;3.90;;;30.60;31.50;;;;;;4994952;28;20034;-84
2021/09/16 09:30:11;;;;;;;4.75;3.05;;;30.70;30.90;;;;;;4979176;28;20038;-84
2021/09/16 09:32:44;;;;;;;3.25;2.40;;;30.80;30.00;;;;;;4978984;28;20041;-84
2021/09/16 09:35:41;;;;;;;2.80;2.30;;;30.90;32.20;;;;;;4978253;28;20046;-84
2021/09/16 09:38:22;;;;;;;3.70;2.38;;;31.00;30.40;;;;;;4978197;28;20074;-85
2021/09/16 09:40:51;;;;;;;3.17;2.20;;;31.20;30.50;;;;;;4978071;28;20073;-83
2021/09/16 09:43:27;;;;;;;6.82;4.15;;;31.40;32.70;;;;;;4995182;28;20516;-83
2021/09/16 09:46:22;;;;;;;6.10;3.92;;;31.50;31.40;;;;;;4995431;28;20109;-83
2021/09/16 09:49:00;;;;;;;3.10;2.80;;;31.60;29.50;;;;;;4985265;28;20121;-85
2021/09/16 09:51:41;;;;;;;3.97;2.55;;;31.70;30.20;;;;;;4977885;28;20049;-83
2021/09/16 09:54:16;;;;;;;2.25;1.70;;;31.70;29.90;;;;;;4995064;28;20046;-84
2021/09/16 09:56:58;;;;;;;2.33;1.80;;;31.80;30.40;;;;;;4977643;28;20057;-84
2021/09/16 09:59:25;;;;;;;2.83;1.95;;;31.80;29.60;;;;;;4993855;28;20034;-84
2021/09/16 10:02:02;;;;;;;2.05;1.70;;;31.80;31.00;;;;;;4993438;28;20042;-84
2021/09/16 10:04:30;;;;;;;2.72;1.83;;;31.90;30.90;;;;;;4978138;28;20030;-83
2021/09/16 10:06:56;;;;;;;3.92;1.88;;;32.10;30.80;;;;;;4995184;28;20039;-83
2021/09/16 10:09:22;;;;;;;3.38;1.83;;;32.10;30.50;;;;;;4977404;28;20437;-82
2021/09/16 10:11:50;;;;;;;2.72;1.60;;;32.30;30.30;;;;;;4995250;28;20210;-84
2021/09/16 10:14:17;;;;;;;2.15;1.88;;;32.40;30.20;;;;;;4995037;28;20117;-84
2021/09/16 10:16:43;;;;;;;2.17;1.92;;;32.60;30.10;;;;;;4995011;28;20038;-84
2021/09/16 10:19:09;;;;;;;1.63;1.50;;;32.70;29.80;;;;;;4995054;28;20026;-84
2021/09/16 10:21:36;;;;;;;1.20;1.10;;;32.80;29.50;;;;;;4977656;28;20412;-84
2021/09/16 10:24:03;;;;;;;1.58;1.20;;;32.80;29.60;;;;;;4994970;28;20031;-84
2021/09/16 10:26:37;;;;;;;2.75;1.33;;;32.80;29.50;;;;;;4994423;28;20100;-84
2021/09/16 10:29:25;;;;;;;1.23;1.13;;;32.80;28.60;;;;;;4994991;28;20036;-84
2021/09/16 10:31:51;;;;;;;1.63;1.03;;;32.80;29.30;;;;;;4994672;28;20046;-84
2021/09/16 10:34:44;;;;;;;0.65;0.65;;;32.70;29.30;;;;;;4977116;28;20519;-83
2021/09/16 10:37:13;;;;;;;2.10;0.88;;;32.80;27.50;;;;;;4978077;28;20362;-83
2021/09/16 10:39:41;;;;;;;1.35;1.20;;;33.00;29.10;;;;;;4977559;28;20038;-83
2021/09/16 10:42:09;;;;;;;3.30;1.40;;;33.20;29.10;;;;;;4994215;28;20050;-83
2021/09/16 10:44:36;;;;;;;1.65;1.20;;;33.40;28.90;;;;;;4994576;28;20034;-84
2021/09/16 10:47:22;;;;;;;1.45;1.20;;;33.50;28.80;;;;;;4994603;28;20113;-84
2021/09/16 10:49:49;;;;;;;1.27;1.08;;;33.50;28.30;;;;;;4994772;28;20026;-84
2021/09/16 10:52:24;;;;;;;1.90;1.20;;;33.40;28.50;;;;;;4994965;28;20057;-84
2021/09/16 10:54:55;;;;;;;2.78;1.10;;;33.40;27.80;;;;;;4994611;28;20034;-84
2021/09/16 10:57:34;;;;;;;1.58;1.45;;;33.40;28.60;;;;;;4977333;28;20385;-84
2021/09/16 11:00:00;;;;;;;3.00;1.63;;;33.60;27.80;;;;;;4977593;28;20038;-85
2021/09/16 11:02:47;;;;;;;1.90;1.70;;;33.60;28.50;;;;;;4980899;28;20084;-84
2021/09/16 11:05:20;;;;;;;2.58;1.75;;;33.60;27.10;;;;;;4997336;28;20039;-84
2021/09/16 11:07:49;;;;;;;2.45;1.90;;;33.50;28.40;;;;;;4981455;28;20039;-84
2021/09/16 11:12:44;;;;;;;1.75;1.55;;;33.70;28.40;;;;;;4998470;28;20041;-83
2021/09/16 11:15:12;;;;;;;2.78;1.70;;;33.80;28.10;;;;;;4998341;28;20094;-83
2021/09/16 11:17:38;;;;;;;2.15;1.70;;;34.00;28.30;;;;;;4980600;28;20120;-83
2021/09/16 11:20:06;;;;;;;2.45;1.75;;;34.00;28.20;;;;;;4980685;28;20046;-84
2021/09/16 11:22:32;;;;;;;3.03;1.95;;;34.10;28.20;;;;;;4997675;28;20034;-84
2021/09/16 11:24:58;;;;;;;4.03;2.00;;;34.20;28.00;;;;;;4998210;28;20038;-84
2021/09/16 11:27:36;;;;;;;2.10;1.63;;;34.20;28.00;;;;;;4997787;28;20409;-84
2021/09/16 11:30:05;;;;;;;2.63;1.90;;;34.00;27.90;;;;;;4980699;28;20035;-85
2021/09/16 11:32:37;;;;;;;1.70;1.60;;;33.80;28.10;;;;;;4980118;28;20057;-84
2021/09/16 11:35:10;;;;;;;2.95;1.90;;;33.70;27.80;;;;;;4997525;28;20034;-85
2021/09/16 11:37:44;;;;;;;2.15;1.60;;;33.70;27.70;;;;;;4997767;28;20038;-84
2021/09/16 11:40:22;;;;;;;5.30;2.00;;;33.90;27.80;;;;;;4997734;28;20477;-84
2021/09/16 11:42:49;;;;;;;2.47;2.03;;;34.00;27.80;;;;;;4997725;28;20042;-84
2021/09/16 11:45:26;;;;;;;3.90;2.13;;;34.10;28.00;;;;;;4980081;28;20046;-85
2021/09/16 11:48:19;;;;;;;2.45;2.00;;;34.20;27.60;;;;;;4998062;28;20041;-83
2021/09/16 11:50:58;;;;;;;2.90;1.95;;;34.20;27.80;;;;;;4978231;28;20136;-84
2021/09/16 11:53:34;;;;;;;3.63;2.50;;;33.90;27.50;;;;;;4997786;28;20038;-84
2021/09/16 11:56:07;;;;;;;3.45;2.10;;;33.70;27.60;;;;;;4980688;28;20088;-84
2021/09/16 11:58:35;;;;;;;2.92;2.08;;;33.80;27.40;;;;;;4996293;28;20035;-83
2021/09/16 12:01:03;;;;;;;2.83;2.15;;;33.60;27.70;;;;;;4997070;28;20065;-84
2021/09/16 12:03:32;;;;;;;4.10;2.63;;;33.80;27.90;;;;;;4997345;28;20477;-84
2021/09/16 12:06:01;;;;;;;3.05;2.40;;;33.90;27.90;;;;;;4997340;28;20472;-84
2021/09/16 12:08:36;;;;;;;3.78;2.70;;;34.10;27.90;;;;;;4979541;28;20066;-84
2021/09/16 12:11:04;;;;;;;4.45;2.50;;;34.40;27.80;;;;;;4979429;28;20038;-84
2021/09/16 12:13:32;;;;;;;5.40;3.40;;;34.70;27.80;;;;;;4979135;28;20027;-83
2021/09/16 12:16:05;;;;;;;5.65;2.97;;;35.00;27.60;;;;;;4979796;28;20034;-84
2021/09/16 12:18:34;;;;;;;5.30;3.05;;;35.10;27.30;;;;;;4997048;28;20027;-83
2021/09/16 12:21:01;;;;;;;7.00;2.85;;;35.20;27.30;;;;;;4997224;28;20504;-84
2021/09/16 12:23:27;;;;;;;3.78;2.60;;;35.20;27.30;;;;;;4979569;28;20030;-84
2021/09/16 12:26:14;;;;;;;4.78;2.60;;;35.10;27.30;;;;;;4995666;28;20039;-84
2021/09/16 12:29:10;;;;;;;5.03;2.72;;;35.00;27.00;;;;;;4995848;28;20038;-83
2021/09/16 12:31:44;;;;;;;3.78;2.95;;;34.90;26.70;;;;;;4995806;28;20035;-84
2021/09/16 12:34:18;;;;;;;4.57;3.25;;;34.80;27.20;;;;;;4996516;28;20033;-83
2021/09/16 12:36:57;;;;;;;6.25;3.92;;;34.80;27.30;;;;;;4979697;28;20046;-83
2021/09/16 12:39:24;;;;;;;4.33;3.40;;;34.90;26.70;;;;;;4995235;28;20047;-84
2021/09/16 12:41:49;;;;;;;3.53;2.55;;;34.90;27.20;;;;;;4996142;28;20568;-83
2021/09/16 12:44:20;;;;;;;4.47;2.95;;;34.70;27.10;;;;;;4979248;28;20066;-83
2021/09/16 12:46:55;;;;;;;4.28;2.70;;;34.60;27.20;;;;;;4981147;28;20081;-83